sensor_id;sensor_type;location;lat;lon;timestamp;temperature;humidity
33825;DHT22;20127;48.962;8.342;2023-07-28T00:02:45;20.20;99.90
33825;DHT22;20127;48.962;8.342;2023-07-28T00:05:47;20.10;99.90
33825;DHT22;20127;48.962;8.342;2023-07-28T00:08:50;20.10;99.90
33825;DHT22;20127;48.962;8.342;2023-07-28T00:11:52;20.10;99.90
33825;DHT22;20127;48.962;8.342;2023-07-28T00:14:54;20.00;99.90
33825;DHT22;20127;48.962;8.342;2023-07-28T00:17:55;20.00;99.90
33825;DHT22;20127;48.962;8.342;2023-07-28T00:20:58;20.00;99.90
33825;DHT22;20127;48.962;8.342;2023-07-28T00:24:01;20.00;99.90
33825;DHT22;20127;48.962;8.342;2023-07-28T00:27:03;19.90;99.90
33825;DHT22;20127;48.962;8.342;2023-07-28T00:30:05;19.90;99.90
33825;DHT22;20127;48.962;8.342;2023-07-28T00:33:07;19.80;99.90
33825;DHT22;20127;48.962;8.342;2023-07-28T00:36:09;19.80;99.90
33825;DHT22;20127;48.962;8.342;2023-07-28T00:39:12;19.70;99.90
33825;DHT22;20127;48.962;8.342;2023-07-28T00:42:14;19.80;99.90
33825;DHT22;20127;48.962;8.342;2023-07-28T00:45:16;19.70;99.90
33825;DHT22;20127;48.962;8.342;2023-07-28T00:48:17;19.60;99.90
33825;DHT22;20127;48.962;8.342;2023-07-28T00:51:21;19.60;99.90
33825;DHT22;20127;48.962;8.342;2023-07-28T00:54:24;19.60;99.90
33825;DHT22;20127;48.962;8.342;2023-07-28T00:57:26;19.60;99.90
33825;DHT22;20127;48.962;8.342;2023-07-28T01:00:27;19.60;99.90
33825;DHT22;20127;48.962;8.342;2023-07-28T01:03:29;19.60;99.90
33825;DHT22;20127;48.962;8.342;2023-07-28T01:06:40;19.50;99.90
33825;DHT22;20127;48.962;8.342;2023-07-28T01:09:49;19.40;99.90
33825;DHT22;20127;48.962;8.342;2023-07-28T01:12:52;19.40;99.90
33825;DHT22;20127;48.962;8.342;2023-07-28T01:15:53;19.40;99.90
33825;DHT22;20127;48.962;8.342;2023-07-28T01:18:55;19.30;99.90
33825;DHT22;20127;48.962;8.342;2023-07-28T01:22:04;19.20;99.90
33825;DHT22;20127;48.962;8.342;2023-07-28T01:25:18;19.20;99.90
33825;DHT22;20127;48.962;8.342;2023-07-28T01:28:23;19.20;99.90
33825;DHT22;20127;48.962;8.342;2023-07-28T01:31:25;19.10;99.90
33825;DHT22;20127;48.962;8.342;2023-07-28T01:34:27;19.00;99.90
33825;DHT22;20127;48.962;8.342;2023-07-28T01:37:28;18.90;99.90
33825;DHT22;20127;48.962;8.342;2023-07-28T01:40:30;18.90;99.90
33825;DHT22;20127;48.962;8.342;2023-07-28T01:43:34;18.80;99.90
33825;DHT22;20127;48.962;8.342;2023-07-28T01:46:35;18.80;99.90
33825;DHT22;20127;48.962;8.342;2023-07-28T01:49:37;18.80;99.90
33825;DHT22;20127;48.962;8.342;2023-07-28T01:52:39;18.70;99.90
33825;DHT22;20127;48.962;8.342;2023-07-28T01:55:40;18.80;99.90
33825;DHT22;20127;48.962;8.342;2023-07-28T01:58:43;18.80;99.90
33825;DHT22;20127;48.962;8.342;2023-07-28T02:01:45;18.70;99.90
33825;DHT22;20127;48.962;8.342;2023-07-28T02:04:47;18.70;99.90
33825;DHT22;20127;48.962;8.342;2023-07-28T02:07:48;18.60;99.90
33825;DHT22;20127;48.962;8.342;2023-07-28T02:10:50;18.60;99.90
33825;DHT22;20127;48.962;8.342;2023-07-28T02:13:55;18.60;99.90
33825;DHT22;20127;48.962;8.342;2023-07-28T02:16:58;18.60;99.90
33825;DHT22;20127;48.962;8.342;2023-07-28T02:20:00;18.50;99.90
33825;DHT22;20127;48.962;8.342;2023-07-28T02:23:03;18.40;99.90
33825;DHT22;20127;48.962;8.342;2023-07-28T02:26:05;18.40;99.90
33825;DHT22;20127;48.962;8.342;2023-07-28T02:29:08;18.50;99.90
33825;DHT22;20127;48.962;8.342;2023-07-28T02:32:10;18.40;99.90
33825;DHT22;20127;48.962;8.342;2023-07-28T02:35:12;18.40;99.90
33825;DHT22;20127;48.962;8.342;2023-07-28T02:38:13;18.30;99.90
33825;DHT22;20127;48.962;8.342;2023-07-28T02:41:15;18.40;99.90
33825;DHT22;20127;48.962;8.342;2023-07-28T02:44:18;18.50;99.90
33825;DHT22;20127;48.962;8.342;2023-07-28T02:47:20;18.40;99.90
33825;DHT22;20127;48.962;8.342;2023-07-28T02:50:22;18.30;99.90
33825;DHT22;20127;48.962;8.342;2023-07-28T02:53:25;18.40;99.90
33825;DHT22;20127;48.962;8.342;2023-07-28T02:56:42;18.40;99.90
33825;DHT22;20127;48.962;8.342;2023-07-28T02:59:46;18.40;99.90
33825;DHT22;20127;48.962;8.342;2023-07-28T03:02:48;18.40;99.90
33825;DHT22;20127;48.962;8.342;2023-07-28T03:05:51;18.40;99.90
33825;DHT22;20127;48.962;8.342;2023-07-28T03:08:54;18.40;99.90
33825;DHT22;20127;48.962;8.342;2023-07-28T03:11:56;18.40;99.90
33825;DHT22;20127;48.962;8.342;2023-07-28T03:14:59;18.40;99.90
33825;DHT22;20127;48.962;8.342;2023-07-28T03:18:01;18.20;99.90
33825;DHT22;20127;48.962;8.342;2023-07-28T03:21:03;18.30;99.90
33825;DHT22;20127;48.962;8.342;2023-07-28T03:24:05;18.20;99.90
33825;DHT22;20127;48.962;8.342;2023-07-28T03:27:06;18.20;99.90
33825;DHT22;20127;48.962;8.342;2023-07-28T03:30:10;18.20;99.90
33825;DHT22;20127;48.962;8.342;2023-07-28T03:33:12;18.10;99.90
33825;DHT22;20127;48.962;8.342;2023-07-28T03:36:13;18.10;99.90
33825;DHT22;20127;48.962;8.342;2023-07-28T03:39:15;18.10;99.90
33825;DHT22;20127;48.962;8.342;2023-07-28T03:42:17;18.00;99.90
33825;DHT22;20127;48.962;8.342;2023-07-28T03:45:20;18.10;99.90
33825;DHT22;20127;48.962;8.342;2023-07-28T03:48:22;18.10;99.90
33825;DHT22;20127;48.962;8.342;2023-07-28T03:51:23;18.10;99.90
33825;DHT22;20127;48.962;8.342;2023-07-28T03:54:25;18.10;99.90
33825;DHT22;20127;48.962;8.342;2023-07-28T03:57:30;18.10;99.90
33825;DHT22;20127;48.962;8.342;2023-07-28T04:00:33;18.00;99.90
33825;DHT22;20127;48.962;8.342;2023-07-28T04:03:35;18.00;99.90
33825;DHT22;20127;48.962;8.342;2023-07-28T04:06:41;18.10;99.90
33825;DHT22;20127;48.962;8.342;2023-07-28T04:09:43;18.10;99.90
33825;DHT22;20127;48.962;8.342;2023-07-28T04:12:44;18.00;99.90
33825;DHT22;20127;48.962;8.342;2023-07-28T04:15:47;18.10;99.90
33825;DHT22;20127;48.962;8.342;2023-07-28T04:18:49;18.10;99.90
33825;DHT22;20127;48.962;8.342;2023-07-28T04:21:51;18.10;99.90
33825;DHT22;20127;48.962;8.342;2023-07-28T04:24:52;18.10;99.90
33825;DHT22;20127;48.962;8.342;2023-07-28T04:27:55;18.10;99.90
33825;DHT22;20127;48.962;8.342;2023-07-28T04:30:58;18.10;99.90
33825;DHT22;20127;48.962;8.342;2023-07-28T04:34:01;18.10;99.90
33825;DHT22;20127;48.962;8.342;2023-07-28T04:37:04;18.20;99.90
33825;DHT22;20127;48.962;8.342;2023-07-28T04:40:07;18.10;99.90
33825;DHT22;20127;48.962;8.342;2023-07-28T04:43:09;18.10;99.90
33825;DHT22;20127;48.962;8.342;2023-07-28T04:46:13;18.10;99.90
33825;DHT22;20127;48.962;8.342;2023-07-28T04:49:14;18.10;99.90
33825;DHT22;20127;48.962;8.342;2023-07-28T04:52:16;18.10;99.90
33825;DHT22;20127;48.962;8.342;2023-07-28T04:55:18;18.10;99.90
33825;DHT22;20127;48.962;8.342;2023-07-28T04:58:20;18.00;99.90
33825;DHT22;20127;48.962;8.342;2023-07-28T05:01:23;18.10;99.90
33825;DHT22;20127;48.962;8.342;2023-07-28T05:04:24;18.10;99.90
33825;DHT22;20127;48.962;8.342;2023-07-28T05:07:26;18.10;99.90
33825;DHT22;20127;48.962;8.342;2023-07-28T05:10:29;18.10;99.90
33825;DHT22;20127;48.962;8.342;2023-07-28T05:13:31;18.10;99.90
33825;DHT22;20127;48.962;8.342;2023-07-28T05:16:34;18.20;99.90
33825;DHT22;20127;48.962;8.342;2023-07-28T05:19:35;18.20;99.90
33825;DHT22;20127;48.962;8.342;2023-07-28T05:22:37;18.20;99.90
33825;DHT22;20127;48.962;8.342;2023-07-28T05:25:39;18.30;99.90
33825;DHT22;20127;48.962;8.342;2023-07-28T05:28:40;18.30;99.90
33825;DHT22;20127;48.962;8.342;2023-07-28T05:31:43;18.30;99.90
33825;DHT22;20127;48.962;8.342;2023-07-28T05:34:45;18.40;99.90
33825;DHT22;20127;48.962;8.342;2023-07-28T05:37:47;18.40;99.90
33825;DHT22;20127;48.962;8.342;2023-07-28T05:40:56;18.40;99.90
33825;DHT22;20127;48.962;8.342;2023-07-28T05:43:58;18.40;99.90
33825;DHT22;20127;48.962;8.342;2023-07-28T05:47:01;18.40;99.90
33825;DHT22;20127;48.962;8.342;2023-07-28T05:50:03;18.50;99.90
33825;DHT22;20127;48.962;8.342;2023-07-28T05:53:06;18.50;99.90
33825;DHT22;20127;48.962;8.342;2023-07-28T05:56:08;18.50;99.90
33825;DHT22;20127;48.962;8.342;2023-07-28T05:59:09;18.50;99.90
33825;DHT22;20127;48.962;8.342;2023-07-28T06:02:12;18.50;99.90
33825;DHT22;20127;48.962;8.342;2023-07-28T06:05:14;18.40;99.90
33825;DHT22;20127;48.962;8.342;2023-07-28T06:08:16;18.40;99.90
33825;DHT22;20127;48.962;8.342;2023-07-28T06:11:18;18.30;99.90
33825;DHT22;20127;48.962;8.342;2023-07-28T06:14:19;18.30;99.90
33825;DHT22;20127;48.962;8.342;2023-07-28T06:17:22;18.40;99.90
33825;DHT22;20127;48.962;8.342;2023-07-28T06:20:28;18.30;99.90
33825;DHT22;20127;48.962;8.342;2023-07-28T06:23:30;18.30;99.90
33825;DHT22;20127;48.962;8.342;2023-07-28T06:26:31;18.30;99.90
33825;DHT22;20127;48.962;8.342;2023-07-28T06:29:33;18.30;99.90
33825;DHT22;20127;48.962;8.342;2023-07-28T06:32:36;18.20;99.90
33825;DHT22;20127;48.962;8.342;2023-07-28T06:35:38;18.20;99.90
33825;DHT22;20127;48.962;8.342;2023-07-28T06:38:40;18.20;99.90
33825;DHT22;20127;48.962;8.342;2023-07-28T06:41:44;18.30;99.90
33825;DHT22;20127;48.962;8.342;2023-07-28T06:44:45;18.30;99.90
33825;DHT22;20127;48.962;8.342;2023-07-28T06:47:48;18.30;99.90
33825;DHT22;20127;48.962;8.342;2023-07-28T06:50:51;18.30;99.90
33825;DHT22;20127;48.962;8.342;2023-07-28T06:53:54;18.30;99.90
33825;DHT22;20127;48.962;8.342;2023-07-28T06:56:55;18.40;99.90
33825;DHT22;20127;48.962;8.342;2023-07-28T06:59:57;18.30;99.90
33825;DHT22;20127;48.962;8.342;2023-07-28T07:03:02;18.40;99.90
33825;DHT22;20127;48.962;8.342;2023-07-28T07:06:03;18.40;99.90
33825;DHT22;20127;48.962;8.342;2023-07-28T07:09:05;18.40;99.90
33825;DHT22;20127;48.962;8.342;2023-07-28T07:12:08;18.50;99.90
33825;DHT22;20127;48.962;8.342;2023-07-28T07:15:10;18.50;99.90
33825;DHT22;20127;48.962;8.342;2023-07-28T07:18:13;18.50;99.90
33825;DHT22;20127;48.962;8.342;2023-07-28T07:21:15;18.60;99.90
33825;DHT22;20127;48.962;8.342;2023-07-28T07:24:17;18.60;99.90
33825;DHT22;20127;48.962;8.342;2023-07-28T07:27:18;18.60;99.90
33825;DHT22;20127;48.962;8.342;2023-07-28T07:30:20;18.70;99.90
33825;DHT22;20127;48.962;8.342;2023-07-28T07:33:23;18.70;99.90
33825;DHT22;20127;48.962;8.342;2023-07-28T07:36:25;18.80;99.90
33825;DHT22;20127;48.962;8.342;2023-07-28T07:39:27;18.80;99.90
33825;DHT22;20127;48.962;8.342;2023-07-28T07:42:40;18.80;99.90
33825;DHT22;20127;48.962;8.342;2023-07-28T07:45:42;18.90;99.90
33825;DHT22;20127;48.962;8.342;2023-07-28T07:48:46;19.00;99.90
33825;DHT22;20127;48.962;8.342;2023-07-28T07:51:47;19.10;99.90
33825;DHT22;20127;48.962;8.342;2023-07-28T07:54:49;19.20;99.90
33825;DHT22;20127;48.962;8.342;2023-07-28T07:57:51;19.40;99.90
33825;DHT22;20127;48.962;8.342;2023-07-28T08:00:53;19.60;99.90
33825;DHT22;20127;48.962;8.342;2023-07-28T08:03:56;20.00;99.90
33825;DHT22;20127;48.962;8.342;2023-07-28T08:06:57;20.70;99.90
33825;DHT22;20127;48.962;8.342;2023-07-28T08:09:59;21.20;99.90
33825;DHT22;20127;48.962;8.342;2023-07-28T08:13:01;21.40;99.90
33825;DHT22;20127;48.962;8.342;2023-07-28T08:16:04;21.50;99.90
33825;DHT22;20127;48.962;8.342;2023-07-28T08:19:08;21.40;99.90
33825;DHT22;20127;48.962;8.342;2023-07-28T08:22:10;21.60;99.90
33825;DHT22;20127;48.962;8.342;2023-07-28T08:25:12;21.90;99.90
33825;DHT22;20127;48.962;8.342;2023-07-28T08:28:14;22.10;99.90
33825;DHT22;20127;48.962;8.342;2023-07-28T08:31:16;22.20;99.90
33825;DHT22;20127;48.962;8.342;2023-07-28T08:34:19;22.40;99.90
33825;DHT22;20127;48.962;8.342;2023-07-28T08:37:21;22.70;99.90
33825;DHT22;20127;48.962;8.342;2023-07-28T08:40:23;22.90;99.90
33825;DHT22;20127;48.962;8.342;2023-07-28T08:43:27;23.00;99.90
33825;DHT22;20127;48.962;8.342;2023-07-28T08:46:29;23.00;99.90
33825;DHT22;20127;48.962;8.342;2023-07-28T08:49:35;23.00;99.90
33825;DHT22;20127;48.962;8.342;2023-07-28T08:52:37;22.90;99.90
33825;DHT22;20127;48.962;8.342;2023-07-28T08:55:39;23.10;99.90
33825;DHT22;20127;48.962;8.342;2023-07-28T08:58:41;23.30;99.90
33825;DHT22;20127;48.962;8.342;2023-07-28T09:01:42;23.50;99.90
33825;DHT22;20127;48.962;8.342;2023-07-28T09:04:46;23.70;99.90
33825;DHT22;20127;48.962;8.342;2023-07-28T09:07:48;23.90;99.90
33825;DHT22;20127;48.962;8.342;2023-07-28T09:10:50;24.20;99.90
33825;DHT22;20127;48.962;8.342;2023-07-28T09:13:53;24.30;99.90
33825;DHT22;20127;48.962;8.342;2023-07-28T09:16:55;24.60;99.90
33825;DHT22;20127;48.962;8.342;2023-07-28T09:19:58;24.70;99.90
33825;DHT22;20127;48.962;8.342;2023-07-28T09:23:01;24.60;99.90
33825;DHT22;20127;48.962;8.342;2023-07-28T09:26:36;24.70;99.90
33825;DHT22;20127;48.962;8.342;2023-07-28T09:29:38;24.90;99.90
33825;DHT22;20127;48.962;8.342;2023-07-28T09:32:47;25.20;99.90
33825;DHT22;20127;48.962;8.342;2023-07-28T09:35:57;25.50;99.90
33825;DHT22;20127;48.962;8.342;2023-07-28T09:39:40;26.00;99.90
33825;DHT22;20127;48.962;8.342;2023-07-28T09:42:43;26.40;99.90
33825;DHT22;20127;48.962;8.342;2023-07-28T09:45:51;26.20;99.90
33825;DHT22;20127;48.962;8.342;2023-07-28T09:48:56;25.90;99.90
33825;DHT22;20127;48.962;8.342;2023-07-28T09:52:04;25.70;99.90
33825;DHT22;20127;48.962;8.342;2023-07-28T09:55:22;25.70;99.90
33825;DHT22;20127;48.962;8.342;2023-07-28T09:58:25;25.90;99.90
33825;DHT22;20127;48.962;8.342;2023-07-28T10:01:28;26.00;99.90
33825;DHT22;20127;48.962;8.342;2023-07-28T10:04:30;25.90;99.90
33825;DHT22;20127;48.962;8.342;2023-07-28T10:07:34;25.50;99.90
33825;DHT22;20127;48.962;8.342;2023-07-28T10:10:37;25.10;99.90
33825;DHT22;20127;48.962;8.342;2023-07-28T10:13:43;24.90;99.90
33825;DHT22;20127;48.962;8.342;2023-07-28T10:16:44;24.60;99.90
33825;DHT22;20127;48.962;8.342;2023-07-28T10:19:46;24.40;99.90
33825;DHT22;20127;48.962;8.342;2023-07-28T10:22:49;24.10;99.90
33825;DHT22;20127;48.962;8.342;2023-07-28T10:25:56;23.90;99.90
33825;DHT22;20127;48.962;8.342;2023-07-28T10:29:08;23.90;99.90
33825;DHT22;20127;48.962;8.342;2023-07-28T10:32:25;23.90;99.90
33825;DHT22;20127;48.962;8.342;2023-07-28T10:35:30;23.90;99.90
33825;DHT22;20127;48.962;8.342;2023-07-28T10:38:35;24.10;99.90
33825;DHT22;20127;48.962;8.342;2023-07-28T10:41:38;24.00;99.90
33825;DHT22;20127;48.962;8.342;2023-07-28T10:44:39;24.20;99.90
33825;DHT22;20127;48.962;8.342;2023-07-28T10:47:41;24.20;99.90
33825;DHT22;20127;48.962;8.342;2023-07-28T10:50:43;24.20;99.90
33825;DHT22;20127;48.962;8.342;2023-07-28T10:53:49;24.20;99.90
33825;DHT22;20127;48.962;8.342;2023-07-28T10:56:51;24.20;99.90
33825;DHT22;20127;48.962;8.342;2023-07-28T10:59:53;24.10;99.90
33825;DHT22;20127;48.962;8.342;2023-07-28T11:02:55;24.00;99.90
33825;DHT22;20127;48.962;8.342;2023-07-28T11:05:57;24.00;99.90
33825;DHT22;20127;48.962;8.342;2023-07-28T11:09:00;24.00;99.90
33825;DHT22;20127;48.962;8.342;2023-07-28T11:12:02;24.20;99.90
33825;DHT22;20127;48.962;8.342;2023-07-28T11:15:05;24.30;99.90
33825;DHT22;20127;48.962;8.342;2023-07-28T11:18:10;24.50;99.90
33825;DHT22;20127;48.962;8.342;2023-07-28T11:21:12;24.40;99.90
33825;DHT22;20127;48.962;8.342;2023-07-28T11:24:18;24.30;99.90
33825;DHT22;20127;48.962;8.342;2023-07-28T11:27:20;24.20;99.90
33825;DHT22;20127;48.962;8.342;2023-07-28T11:30:22;24.20;99.90
33825;DHT22;20127;48.962;8.342;2023-07-28T11:33:24;24.00;99.90
33825;DHT22;20127;48.962;8.342;2023-07-28T11:36:28;23.60;99.90
33825;DHT22;20127;48.962;8.342;2023-07-28T11:39:32;23.40;99.90
33825;DHT22;20127;48.962;8.342;2023-07-28T11:42:35;23.10;99.90
33825;DHT22;20127;48.962;8.342;2023-07-28T11:45:37;22.80;99.90
33825;DHT22;20127;48.962;8.342;2023-07-28T11:48:39;22.60;99.90
33825;DHT22;20127;48.962;8.342;2023-07-28T11:51:41;22.50;99.90
33825;DHT22;20127;48.962;8.342;2023-07-28T11:54:45;22.50;99.90
33825;DHT22;20127;48.962;8.342;2023-07-28T11:57:47;22.60;99.90
33825;DHT22;20127;48.962;8.342;2023-07-28T12:00:49;22.70;99.90
33825;DHT22;20127;48.962;8.342;2023-07-28T12:03:51;22.80;99.90
33825;DHT22;20127;48.962;8.342;2023-07-28T12:07:16;22.80;99.90
33825;DHT22;20127;48.962;8.342;2023-07-28T12:10:20;22.70;99.90
33825;DHT22;20127;48.962;8.342;2023-07-28T12:13:21;22.70;99.90
33825;DHT22;20127;48.962;8.342;2023-07-28T12:16:39;22.60;99.90
33825;DHT22;20127;48.962;8.342;2023-07-28T12:19:41;22.60;99.90
33825;DHT22;20127;48.962;8.342;2023-07-28T12:22:44;22.50;99.90
33825;DHT22;20127;48.962;8.342;2023-07-28T12:25:48;22.40;99.90
33825;DHT22;20127;48.962;8.342;2023-07-28T12:28:50;22.30;99.90
33825;DHT22;20127;48.962;8.342;2023-07-28T12:31:52;22.10;99.90
33825;DHT22;20127;48.962;8.342;2023-07-28T12:34:53;22.00;99.90
33825;DHT22;20127;48.962;8.342;2023-07-28T12:37:55;21.90;99.90
33825;DHT22;20127;48.962;8.342;2023-07-28T12:40:58;21.80;99.90
33825;DHT22;20127;48.962;8.342;2023-07-28T12:44:00;21.60;99.90
33825;DHT22;20127;48.962;8.342;2023-07-28T12:47:02;21.50;99.90
33825;DHT22;20127;48.962;8.342;2023-07-28T12:50:04;21.40;99.90
33825;DHT22;20127;48.962;8.342;2023-07-28T12:53:07;21.30;99.90
33825;DHT22;20127;48.962;8.342;2023-07-28T12:56:10;21.20;99.90
33825;DHT22;20127;48.962;8.342;2023-07-28T12:59:12;21.20;99.90
33825;DHT22;20127;48.962;8.342;2023-07-28T13:02:14;21.20;99.90
33825;DHT22;20127;48.962;8.342;2023-07-28T13:05:16;21.10;99.90
33825;DHT22;20127;48.962;8.342;2023-07-28T13:08:18;21.00;99.90
33825;DHT22;20127;48.962;8.342;2023-07-28T13:11:21;21.00;99.90
33825;DHT22;20127;48.962;8.342;2023-07-28T13:14:22;21.00;99.90
33825;DHT22;20127;48.962;8.342;2023-07-28T13:17:24;21.00;99.90
33825;DHT22;20127;48.962;8.342;2023-07-28T13:20:26;21.10;99.90
33825;DHT22;20127;48.962;8.342;2023-07-28T13:23:27;21.00;99.90
33825;DHT22;20127;48.962;8.342;2023-07-28T13:26:31;21.00;99.90
33825;DHT22;20127;48.962;8.342;2023-07-28T13:29:32;20.90;99.90
33825;DHT22;20127;48.962;8.342;2023-07-28T13:32:34;21.00;99.90
33825;DHT22;20127;48.962;8.342;2023-07-28T13:35:36;21.00;99.90
33825;DHT22;20127;48.962;8.342;2023-07-28T13:38:38;21.00;99.90
33825;DHT22;20127;48.962;8.342;2023-07-28T13:41:42;21.10;99.90
33825;DHT22;20127;48.962;8.342;2023-07-28T13:44:43;21.20;99.90
33825;DHT22;20127;48.962;8.342;2023-07-28T13:47:45;21.30;99.90
33825;DHT22;20127;48.962;8.342;2023-07-28T13:50:47;21.20;99.90
33825;DHT22;20127;48.962;8.342;2023-07-28T13:53:48;21.30;99.90
33825;DHT22;20127;48.962;8.342;2023-07-28T13:56:52;21.30;99.90
33825;DHT22;20127;48.962;8.342;2023-07-28T13:59:53;21.30;99.90
33825;DHT22;20127;48.962;8.342;2023-07-28T14:02:55;21.20;99.90
33825;DHT22;20127;48.962;8.342;2023-07-28T14:05:57;21.20;99.90
33825;DHT22;20127;48.962;8.342;2023-07-28T14:08:58;21.10;99.90
33825;DHT22;20127;48.962;8.342;2023-07-28T14:12:01;21.00;99.90
33825;DHT22;20127;48.962;8.342;2023-07-28T14:15:04;21.00;99.90
33825;DHT22;20127;48.962;8.342;2023-07-28T14:18:07;20.90;99.90
33825;DHT22;20127;48.962;8.342;2023-07-28T14:21:08;20.80;99.90
33825;DHT22;20127;48.962;8.342;2023-07-28T14:24:10;20.80;99.90
33825;DHT22;20127;48.962;8.342;2023-07-28T14:27:14;20.80;99.90
33825;DHT22;20127;48.962;8.342;2023-07-28T14:30:16;20.80;99.90
33825;DHT22;20127;48.962;8.342;2023-07-28T14:33:18;20.80;99.90
33825;DHT22;20127;48.962;8.342;2023-07-28T14:36:19;20.70;99.90
33825;DHT22;20127;48.962;8.342;2023-07-28T14:39:21;20.80;99.90
33825;DHT22;20127;48.962;8.342;2023-07-28T14:42:25;20.80;99.90
33825;DHT22;20127;48.962;8.342;2023-07-28T14:45:26;20.80;99.90
33825;DHT22;20127;48.962;8.342;2023-07-28T14:48:28;20.80;99.90
33825;DHT22;20127;48.962;8.342;2023-07-28T14:51:30;20.80;99.90
33825;DHT22;20127;48.962;8.342;2023-07-28T14:54:31;20.80;99.90
33825;DHT22;20127;48.962;8.342;2023-07-28T14:57:37;20.80;99.90
33825;DHT22;20127;48.962;8.342;2023-07-28T15:00:38;20.80;99.90
33825;DHT22;20127;48.962;8.342;2023-07-28T15:03:40;20.80;99.90
33825;DHT22;20127;48.962;8.342;2023-07-28T15:06:42;20.80;99.90
33825;DHT22;20127;48.962;8.342;2023-07-28T15:09:43;20.70;99.90
33825;DHT22;20127;48.962;8.342;2023-07-28T15:12:46;20.80;99.90
33825;DHT22;20127;48.962;8.342;2023-07-28T15:15:48;20.80;99.90
33825;DHT22;20127;48.962;8.342;2023-07-28T15:18:50;20.80;99.90
33825;DHT22;20127;48.962;8.342;2023-07-28T15:21:52;20.80;99.90
33825;DHT22;20127;48.962;8.342;2023-07-28T15:24:54;20.70;99.90
33825;DHT22;20127;48.962;8.342;2023-07-28T15:27:57;20.70;99.90
33825;DHT22;20127;48.962;8.342;2023-07-28T15:30:58;20.70;99.90
33825;DHT22;20127;48.962;8.342;2023-07-28T15:34:00;20.80;99.90
33825;DHT22;20127;48.962;8.342;2023-07-28T15:37:02;20.70;99.90
33825;DHT22;20127;48.962;8.342;2023-07-28T15:40:05;20.70;99.90
33825;DHT22;20127;48.962;8.342;2023-07-28T15:43:09;20.70;99.90
33825;DHT22;20127;48.962;8.342;2023-07-28T15:46:11;20.80;99.90
33825;DHT22;20127;48.962;8.342;2023-07-28T15:49:12;20.80;99.90
33825;DHT22;20127;48.962;8.342;2023-07-28T15:52:15;20.80;99.90
33825;DHT22;20127;48.962;8.342;2023-07-28T15:55:16;20.80;99.90
33825;DHT22;20127;48.962;8.342;2023-07-28T15:58:20;20.80;99.90
33825;DHT22;20127;48.962;8.342;2023-07-28T16:01:21;20.90;99.90
33825;DHT22;20127;48.962;8.342;2023-07-28T16:04:23;20.90;99.90
33825;DHT22;20127;48.962;8.342;2023-07-28T16:07:24;20.90;99.90
33825;DHT22;20127;48.962;8.342;2023-07-28T16:10:26;20.90;99.90
33825;DHT22;20127;48.962;8.342;2023-07-28T16:13:29;20.90;99.90
33825;DHT22;20127;48.962;8.342;2023-07-28T16:16:32;21.00;99.90
33825;DHT22;20127;48.962;8.342;2023-07-28T16:19:34;21.00;99.90
33825;DHT22;20127;48.962;8.342;2023-07-28T16:22:36;21.10;99.90
33825;DHT22;20127;48.962;8.342;2023-07-28T16:25:39;21.20;99.90
33825;DHT22;20127;48.962;8.342;2023-07-28T16:28:41;21.30;99.90
33825;DHT22;20127;48.962;8.342;2023-07-28T16:31:43;21.40;99.90
33825;DHT22;20127;48.962;8.342;2023-07-28T16:34:45;21.50;99.90
33825;DHT22;20127;48.962;8.342;2023-07-28T16:37:47;21.60;99.90
33825;DHT22;20127;48.962;8.342;2023-07-28T16:40:48;21.60;99.90
33825;DHT22;20127;48.962;8.342;2023-07-28T16:43:51;21.70;99.90
33825;DHT22;20127;48.962;8.342;2023-07-28T16:46:53;21.80;99.90
33825;DHT22;20127;48.962;8.342;2023-07-28T16:49:55;21.90;99.90
33825;DHT22;20127;48.962;8.342;2023-07-28T16:52:56;21.90;99.90
33825;DHT22;20127;48.962;8.342;2023-07-28T16:55:58;21.80;99.90
33825;DHT22;20127;48.962;8.342;2023-07-28T16:59:01;21.70;99.90
33825;DHT22;20127;48.962;8.342;2023-07-28T17:02:03;21.70;99.90
33825;DHT22;20127;48.962;8.342;2023-07-28T17:05:05;21.80;99.90
33825;DHT22;20127;48.962;8.342;2023-07-28T17:08:06;21.70;99.90
33825;DHT22;20127;48.962;8.342;2023-07-28T17:11:08;21.80;99.90
33825;DHT22;20127;48.962;8.342;2023-07-28T17:14:11;21.80;99.90
33825;DHT22;20127;48.962;8.342;2023-07-28T17:17:13;21.70;99.90
33825;DHT22;20127;48.962;8.342;2023-07-28T17:20:15;21.70;99.90
33825;DHT22;20127;48.962;8.342;2023-07-28T17:23:17;21.60;99.90
33825;DHT22;20127;48.962;8.342;2023-07-28T17:26:19;21.60;99.90
33825;DHT22;20127;48.962;8.342;2023-07-28T17:29:22;21.50;99.90
33825;DHT22;20127;48.962;8.342;2023-07-28T17:32:23;21.40;99.90
33825;DHT22;20127;48.962;8.342;2023-07-28T17:35:25;21.40;99.90
33825;DHT22;20127;48.962;8.342;2023-07-28T17:38:27;21.30;99.90
33825;DHT22;20127;48.962;8.342;2023-07-28T17:41:30;21.30;99.90
33825;DHT22;20127;48.962;8.342;2023-07-28T17:44:33;21.30;99.90
33825;DHT22;20127;48.962;8.342;2023-07-28T17:47:35;21.30;99.90
33825;DHT22;20127;48.962;8.342;2023-07-28T17:50:37;21.40;99.90
33825;DHT22;20127;48.962;8.342;2023-07-28T17:53:39;21.40;99.90
33825;DHT22;20127;48.962;8.342;2023-07-28T17:56:41;21.40;99.90
33825;DHT22;20127;48.962;8.342;2023-07-28T17:59:44;21.30;99.90
33825;DHT22;20127;48.962;8.342;2023-07-28T18:02:47;21.20;99.90
33825;DHT22;20127;48.962;8.342;2023-07-28T18:05:49;21.20;99.90
33825;DHT22;20127;48.962;8.342;2023-07-28T18:08:50;21.10;99.90
33825;DHT22;20127;48.962;8.342;2023-07-28T18:11:52;21.10;99.90
33825;DHT22;20127;48.962;8.342;2023-07-28T18:14:55;21.00;99.90
33825;DHT22;20127;48.962;8.342;2023-07-28T18:17:57;20.90;99.90
33825;DHT22;20127;48.962;8.342;2023-07-28T18:20:59;20.80;99.90
33825;DHT22;20127;48.962;8.342;2023-07-28T18:24:00;20.80;99.90
33825;DHT22;20127;48.962;8.342;2023-07-28T18:27:02;20.70;99.90
33825;DHT22;20127;48.962;8.342;2023-07-28T18:30:07;20.70;99.90
33825;DHT22;20127;48.962;8.342;2023-07-28T18:33:09;20.60;99.90
33825;DHT22;20127;48.962;8.342;2023-07-28T18:36:11;20.50;99.90
33825;DHT22;20127;48.962;8.342;2023-07-28T18:39:12;20.50;99.90
33825;DHT22;20127;48.962;8.342;2023-07-28T18:42:14;20.40;99.90
33825;DHT22;20127;48.962;8.342;2023-07-28T18:45:17;20.40;99.90
33825;DHT22;20127;48.962;8.342;2023-07-28T18:48:19;20.30;99.90
33825;DHT22;20127;48.962;8.342;2023-07-28T18:51:21;20.30;99.90
33825;DHT22;20127;48.962;8.342;2023-07-28T18:54:22;20.30;99.90
33825;DHT22;20127;48.962;8.342;2023-07-28T18:57:24;20.30;99.90
33825;DHT22;20127;48.962;8.342;2023-07-28T19:00:27;20.30;99.90
33825;DHT22;20127;48.962;8.342;2023-07-28T19:03:29;20.30;99.90
33825;DHT22;20127;48.962;8.342;2023-07-28T19:06:32;20.30;99.90
33825;DHT22;20127;48.962;8.342;2023-07-28T19:09:35;20.20;99.90
33825;DHT22;20127;48.962;8.342;2023-07-28T19:12:37;20.10;99.90
33825;DHT22;20127;48.962;8.342;2023-07-28T19:15:40;20.10;99.90